sensor_id;sensor_type;location;lat;lon;timestamp;P1;durP1;ratioP1;P2;durP2;ratioP2
65825;SDS011;52586;-43.152;172.732;2022-09-09T00:01:26;2.35;;;1.63;;
65825;SDS011;52586;-43.152;172.732;2022-09-09T00:04:05;1.75;;;1.52;;
65825;SDS011;52586;-43.152;172.732;2022-09-09T00:06:43;2.38;;;1.60;;
65825;SDS011;52586;-43.152;172.732;2022-09-09T00:09:19;2.40;;;1.58;;
65825;SDS011;52586;-43.152;172.732;2022-09-09T00:11:55;3.30;;;1.75;;
65825;SDS011;52586;-43.152;172.732;2022-09-09T00:14:36;2.47;;;1.55;;
65825;SDS011;52586;-43.152;172.732;2022-09-09T00:17:12;2.95;;;1.90;;
65825;SDS011;52586;-43.152;172.732;2022-09-09T00:19:49;6.30;;;1.83;;
65825;SDS011;52586;-43.152;172.732;2022-09-09T00:22:27;3.13;;;2.00;;
65825;SDS011;52586;-43.152;172.732;2022-09-09T00:25:01;2.55;;;1.90;;
65825;SDS011;52586;-43.152;172.732;2022-09-09T00:27:40;3.13;;;1.55;;
65825;SDS011;52586;-43.152;172.732;2022-09-09T00:30:17;1.98;;;1.60;;
65825;SDS011;52586;-43.152;172.732;2022-09-09T00:32:49;3.08;;;1.98;;
65825;SDS011;52586;-43.152;172.732;2022-09-09T00:35:25;3.22;;;1.90;;
65825;SDS011;52586;-43.152;172.732;2022-09-09T00:38:00;2.38;;;1.65;;
65825;SDS011;52586;-43.152;172.732;2022-09-09T00:40:39;3.05;;;1.50;;
65825;SDS011;52586;-43.152;172.732;2022-09-09T00:43:26;2.35;;;1.52;;
65825;SDS011;52586;-43.152;172.732;2022-09-09T00:46:13;2.08;;;1.50;;
65825;SDS011;52586;-43.152;172.732;2022-09-09T00:49:04;1.63;;;1.35;;
65825;SDS011;52586;-43.152;172.732;2022-09-09T00:51:44;2.17;;;1.50;;
65825;SDS011;52586;-43.152;172.732;2022-09-09T00:54:28;1.83;;;1.33;;
65825;SDS011;52586;-43.152;172.732;2022-09-09T00:57:10;2.38;;;1.80;;
65825;SDS011;52586;-43.152;172.732;2022-09-09T00:59:51;3.88;;;2.00;;
65825;SDS011;52586;-43.152;172.732;2022-09-09T01:02:29;3.20;;;1.60;;
65825;SDS011;52586;-43.152;172.732;2022-09-09T01:05:06;3.00;;;1.75;;
65825;SDS011;52586;-43.152;172.732;2022-09-09T01:07:43;2.88;;;1.50;;
65825;SDS011;52586;-43.152;172.732;2022-09-09T01:10:21;2.30;;;1.67;;
65825;SDS011;52586;-43.152;172.732;2022-09-09T01:12:56;2.75;;;1.50;;
65825;SDS011;52586;-43.152;172.732;2022-09-09T01:15:31;3.05;;;1.75;;
65825;SDS011;52586;-43.152;172.732;2022-09-09T01:18:06;2.30;;;1.52;;
65825;SDS011;52586;-43.152;172.732;2022-09-09T01:20:41;2.80;;;1.70;;
65825;SDS011;52586;-43.152;172.732;2022-09-09T01:23:23;2.22;;;1.60;;
65825;SDS011;52586;-43.152;172.732;2022-09-09T01:26:18;2.40;;;1.50;;
65825;SDS011;52586;-43.152;172.732;2022-09-09T01:28:53;2.33;;;1.60;;
65825;SDS011;52586;-43.152;172.732;2022-09-09T01:31:26;2.72;;;1.58;;
65825;SDS011;52586;-43.152;172.732;2022-09-09T01:33:59;4.05;;;1.80;;
65825;SDS011;52586;-43.152;172.732;2022-09-09T02:36:05;3.58;;;1.80;;
65825;SDS011;52586;-43.152;172.732;2022-09-09T02:38:40;1.95;;;1.52;;
65825;SDS011;52586;-43.152;172.732;2022-09-09T02:41:16;2.65;;;2.00;;
65825;SDS011;52586;-43.152;172.732;2022-09-09T02:43:48;3.05;;;1.80;;
65825;SDS011;52586;-43.152;172.732;2022-09-09T02:46:23;2.03;;;1.70;;
65825;SDS011;52586;-43.152;172.732;2022-09-09T02:49:01;2.15;;;1.80;;
65825;SDS011;52586;-43.152;172.732;2022-09-09T02:51:40;1.95;;;1.73;;
65825;SDS011;52586;-43.152;172.732;2022-09-09T02:54:20;3.45;;;2.00;;
65825;SDS011;52586;-43.152;172.732;2022-09-09T02:56:58;2.78;;;1.77;;
65825;SDS011;52586;-43.152;172.732;2022-09-09T02:59:34;2.25;;;1.73;;
65825;SDS011;52586;-43.152;172.732;2022-09-09T03:02:04;2.28;;;2.00;;
65825;SDS011;52586;-43.152;172.732;2022-09-09T03:04:37;1.80;;;1.55;;
65825;SDS011;52586;-43.152;172.732;2022-09-09T03:07:12;2.00;;;1.63;;
65825;SDS011;52586;-43.152;172.732;2022-09-09T03:09:43;2.58;;;1.88;;
65825;SDS011;52586;-43.152;172.732;2022-09-09T03:12:13;3.17;;;1.73;;
65825;SDS011;52586;-43.152;172.732;2022-09-09T03:14:44;2.10;;;1.70;;
65825;SDS011;52586;-43.152;172.732;2022-09-09T03:17:15;2.65;;;1.60;;
65825;SDS011;52586;-43.152;172.732;2022-09-09T03:19:45;1.98;;;1.50;;
65825;SDS011;52586;-43.152;172.732;2022-09-09T03:22:20;2.08;;;1.85;;
65825;SDS011;52586;-43.152;172.732;2022-09-09T03:24:51;1.42;;;1.33;;
65825;SDS011;52586;-43.152;172.732;2022-09-09T03:27:22;1.98;;;1.70;;
65825;SDS011;52586;-43.152;172.732;2022-09-09T03:29:52;2.13;;;1.85;;
65825;SDS011;52586;-43.152;172.732;2022-09-09T03:32:23;2.00;;;1.50;;
65825;SDS011;52586;-43.152;172.732;2022-09-09T03:34:54;2.67;;;1.63;;
65825;SDS011;52586;-43.152;172.732;2022-09-09T03:37:27;1.73;;;1.58;;
65825;SDS011;52586;-43.152;172.732;2022-09-09T03:39:57;2.47;;;1.60;;
65825;SDS011;52586;-43.152;172.732;2022-09-09T03:42:28;2.38;;;1.30;;
65825;SDS011;52586;-43.152;172.732;2022-09-09T03:44:59;3.03;;;1.50;;
65825;SDS011;52586;-43.152;172.732;2022-09-09T03:47:30;1.70;;;1.60;;
65825;SDS011;52586;-43.152;172.732;2022-09-09T03:50:00;1.30;;;1.20;;
65825;SDS011;52586;-43.152;172.732;2022-09-09T03:52:36;2.55;;;1.60;;
65825;SDS011;52586;-43.152;172.732;2022-09-09T03:55:08;1.70;;;1.60;;
65825;SDS011;52586;-43.152;172.732;2022-09-09T03:57:39;1.55;;;1.40;;
65825;SDS011;52586;-43.152;172.732;2022-09-09T04:00:10;2.22;;;1.50;;
65825;SDS011;52586;-43.152;172.732;2022-09-09T04:02:41;1.85;;;1.23;;
65825;SDS011;52586;-43.152;172.732;2022-09-09T04:05:12;1.17;;;1.08;;
65825;SDS011;52586;-43.152;172.732;2022-09-09T04:07:45;1.58;;;1.20;;
65825;SDS011;52586;-43.152;172.732;2022-09-09T04:10:15;1.45;;;1.30;;
65825;SDS011;52586;-43.152;172.732;2022-09-09T04:12:47;2.60;;;1.30;;
65825;SDS011;52586;-43.152;172.732;2022-09-09T04:15:18;2.28;;;1.30;;
65825;SDS011;52586;-43.152;172.732;2022-09-09T04:17:49;1.50;;;1.40;;
65825;SDS011;52586;-43.152;172.732;2022-09-09T04:20:20;2.85;;;1.75;;
65825;SDS011;52586;-43.152;172.732;2022-09-09T04:22:52;1.58;;;1.45;;
65825;SDS011;52586;-43.152;172.732;2022-09-09T04:25:23;1.58;;;1.48;;
65825;SDS011;52586;-43.152;172.732;2022-09-09T04:27:54;1.95;;;1.58;;
65825;SDS011;52586;-43.152;172.732;2022-09-09T04:30:25;2.35;;;1.63;;
65825;SDS011;52586;-43.152;172.732;2022-09-09T04:32:56;2.25;;;1.60;;
65825;SDS011;52586;-43.152;172.732;2022-09-09T04:35:27;2.72;;;1.50;;
65825;SDS011;52586;-43.152;172.732;2022-09-09T04:37:59;1.80;;;1.20;;
65825;SDS011;52586;-43.152;172.732;2022-09-09T05:40:06;1.58;;;1.48;;
65825;SDS011;52586;-43.152;172.732;2022-09-09T05:42:37;1.17;;;1.10;;
65825;SDS011;52586;-43.152;172.732;2022-09-09T05:45:08;1.55;;;1.30;;
65825;SDS011;52586;-43.152;172.732;2022-09-09T05:47:39;1.33;;;1.13;;
65825;SDS011;52586;-43.152;172.732;2022-09-09T05:50:10;1.33;;;1.23;;
65825;SDS011;52586;-43.152;172.732;2022-09-09T05:52:43;1.63;;;1.38;;
65825;SDS011;52586;-43.152;172.732;2022-09-09T05:55:17;1.88;;;1.20;;
65825;SDS011;52586;-43.152;172.732;2022-09-09T05:57:48;2.35;;;1.40;;
65825;SDS011;52586;-43.152;172.732;2022-09-09T06:00:19;1.80;;;1.45;;
65825;SDS011;52586;-43.152;172.732;2022-09-09T06:02:51;1.30;;;1.20;;
65825;SDS011;52586;-43.152;172.732;2022-09-09T06:05:21;1.75;;;1.13;;
65825;SDS011;52586;-43.152;172.732;2022-09-09T06:07:53;1.70;;;1.38;;
65825;SDS011;52586;-43.152;172.732;2022-09-09T06:10:25;1.55;;;1.45;;
65825;SDS011;52586;-43.152;172.732;2022-09-09T06:12:56;1.20;;;1.10;;
65825;SDS011;52586;-43.152;172.732;2022-09-09T06:15:27;1.42;;;1.20;;
65825;SDS011;52586;-43.152;172.732;2022-09-09T06:17:58;1.60;;;1.50;;
65825;SDS011;52586;-43.152;172.732;2022-09-09T06:20:28;2.97;;;1.48;;
65825;SDS011;52586;-43.152;172.732;2022-09-09T06:22:59;1.80;;;1.20;;
65825;SDS011;52586;-43.152;172.732;2022-09-09T06:25:32;1.77;;;1.52;;
65825;SDS011;52586;-43.152;172.732;2022-09-09T06:28:03;1.33;;;1.23;;
65825;SDS011;52586;-43.152;172.732;2022-09-09T06:30:33;1.45;;;1.35;;
65825;SDS011;52586;-43.152;172.732;2022-09-09T06:33:04;1.27;;;1.17;;
65825;SDS011;52586;-43.152;172.732;2022-09-09T06:35:35;1.42;;;1.33;;
65825;SDS011;52586;-43.152;172.732;2022-09-09T06:38:06;1.27;;;1.17;;
65825;SDS011;52586;-43.152;172.732;2022-09-09T07:40:11;1.90;;;1.63;;
65825;SDS011;52586;-43.152;172.732;2022-09-09T07:42:42;1.73;;;1.63;;
65825;SDS011;52586;-43.152;172.732;2022-09-09T07:45:13;1.95;;;1.75;;
65825;SDS011;52586;-43.152;172.732;2022-09-09T07:47:44;1.77;;;1.65;;
65825;SDS011;52586;-43.152;172.732;2022-09-09T07:50:15;2.03;;;1.65;;
65825;SDS011;52586;-43.152;172.732;2022-09-09T07:52:46;1.60;;;1.40;;
65825;SDS011;52586;-43.152;172.732;2022-09-09T07:55:19;1.70;;;1.60;;
65825;SDS011;52586;-43.152;172.732;2022-09-09T07:57:51;2.13;;;1.67;;
65825;SDS011;52586;-43.152;172.732;2022-09-09T08:00:22;1.70;;;1.60;;
65825;SDS011;52586;-43.152;172.732;2022-09-09T08:02:54;1.77;;;1.60;;
65825;SDS011;52586;-43.152;172.732;2022-09-09T08:05:28;1.60;;;1.35;;
65825;SDS011;52586;-43.152;172.732;2022-09-09T08:07:59;1.40;;;1.30;;
65825;SDS011;52586;-43.152;172.732;2022-09-09T08:10:32;1.55;;;1.45;;
65825;SDS011;52586;-43.152;172.732;2022-09-09T08:13:03;1.95;;;1.67;;
65825;SDS011;52586;-43.152;172.732;2022-09-09T08:15:34;1.75;;;1.50;;
65825;SDS011;52586;-43.152;172.732;2022-09-09T08:18:05;1.77;;;1.67;;
65825;SDS011;52586;-43.152;172.732;2022-09-09T08:20:36;2.28;;;1.48;;
65825;SDS011;52586;-43.152;172.732;2022-09-09T08:23:08;2.15;;;1.83;;
65825;SDS011;52586;-43.152;172.732;2022-09-09T08:25:41;1.60;;;1.50;;
65825;SDS011;52586;-43.152;172.732;2022-09-09T08:28:12;1.80;;;1.70;;
65825;SDS011;52586;-43.152;172.732;2022-09-09T08:30:43;1.70;;;1.60;;
65825;SDS011;52586;-43.152;172.732;2022-09-09T08:33:14;2.05;;;1.85;;
65825;SDS011;52586;-43.152;172.732;2022-09-09T08:35:50;1.67;;;1.58;;
65825;SDS011;52586;-43.152;172.732;2022-09-09T08:38:20;1.67;;;1.58;;
65825;SDS011;52586;-43.152;172.732;2022-09-09T09:40:52;1.95;;;1.75;;
65825;SDS011;52586;-43.152;172.732;2022-09-09T09:43:25;1.77;;;1.63;;
65825;SDS011;52586;-43.152;172.732;2022-09-09T09:45:57;1.98;;;1.73;;
65825;SDS011;52586;-43.152;172.732;2022-09-09T09:48:29;1.88;;;1.73;;
65825;SDS011;52586;-43.152;172.732;2022-09-09T09:51:01;1.92;;;1.77;;
65825;SDS011;52586;-43.152;172.732;2022-09-09T09:53:36;1.85;;;1.70;;
65825;SDS011;52586;-43.152;172.732;2022-09-09T09:56:11;1.70;;;1.60;;
65825;SDS011;52586;-43.152;172.732;2022-09-09T09:58:48;1.85;;;1.60;;
65825;SDS011;52586;-43.152;172.732;2022-09-09T10:01:21;3.60;;;1.90;;
65825;SDS011;52586;-43.152;172.732;2022-09-09T10:03:53;2.08;;;1.88;;
65825;SDS011;52586;-43.152;172.732;2022-09-09T10:06:30;2.08;;;1.92;;
65825;SDS011;52586;-43.152;172.732;2022-09-09T10:09:01;2.28;;;1.98;;
65825;SDS011;52586;-43.152;172.732;2022-09-09T10:11:50;2.70;;;1.60;;
65825;SDS011;52586;-43.152;172.732;2022-09-09T10:14:27;3.78;;;2.20;;
65825;SDS011;52586;-43.152;172.732;2022-09-09T10:17:06;3.05;;;1.98;;
65825;SDS011;52586;-43.152;172.732;2022-09-09T10:19:45;2.70;;;1.92;;
65825;SDS011;52586;-43.152;172.732;2022-09-09T10:22:26;2.95;;;2.10;;
65825;SDS011;52586;-43.152;172.732;2022-09-09T10:28:17;5.15;;;2.20;;
65825;SDS011;52586;-43.152;172.732;2022-09-09T10:31:17;2.85;;;2.17;;
65825;SDS011;52586;-43.152;172.732;2022-09-09T10:33:56;5.53;;;2.35;;
65825;SDS011;52586;-43.152;172.732;2022-09-09T10:36:35;4.60;;;2.42;;
65825;SDS011;52586;-43.152;172.732;2022-09-09T10:39:15;3.83;;;2.90;;
65825;SDS011;52586;-43.152;172.732;2022-09-09T10:41:53;2.97;;;2.70;;
65825;SDS011;52586;-43.152;172.732;2022-09-09T10:44:58;4.45;;;2.30;;
65825;SDS011;52586;-43.152;172.732;2022-09-09T10:47:42;3.85;;;2.33;;
65825;SDS011;52586;-43.152;172.732;2022-09-09T10:50:43;3.58;;;2.45;;
65825;SDS011;52586;-43.152;172.732;2022-09-09T10:53:24;5.55;;;2.95;;
65825;SDS011;52586;-43.152;172.732;2022-09-09T10:56:05;4.10;;;2.70;;
65825;SDS011;52586;-43.152;172.732;2022-09-09T10:58:40;3.60;;;2.58;;
65825;SDS011;52586;-43.152;172.732;2022-09-09T11:01:19;3.40;;;2.60;;
65825;SDS011;52586;-43.152;172.732;2022-09-09T11:03:54;3.42;;;2.72;;
65825;SDS011;52586;-43.152;172.732;2022-09-09T11:06:30;2.85;;;2.33;;
65825;SDS011;52586;-43.152;172.732;2022-09-09T11:09:08;3.97;;;2.53;;
65825;SDS011;52586;-43.152;172.732;2022-09-09T11:11:46;3.90;;;3.08;;
65825;SDS011;52586;-43.152;172.732;2022-09-09T11:14:22;3.47;;;3.00;;
65825;SDS011;52586;-43.152;172.732;2022-09-09T11:17:02;3.47;;;2.65;;
65825;SDS011;52586;-43.152;172.732;2022-09-09T11:19:38;4.05;;;2.65;;
65825;SDS011;52586;-43.152;172.732;2022-09-09T11:22:14;3.75;;;3.10;;
65825;SDS011;52586;-43.152;172.732;2022-09-09T11:24:51;3.72;;;2.80;;
65825;SDS011;52586;-43.152;172.732;2022-09-09T11:27:26;3.30;;;2.90;;
65825;SDS011;52586;-43.152;172.732;2022-09-09T11:30:05;3.70;;;2.50;;
65825;SDS011;52586;-43.152;172.732;2022-09-09T11:32:58;4.30;;;2.97;;
65825;SDS011;52586;-43.152;172.732;2022-09-09T11:35:55;3.10;;;2.55;;
65825;SDS011;52586;-43.152;172.732;2022-09-09T11:41:15;4.63;;;3.00;;
65825;SDS011;52586;-43.152;172.732;2022-09-09T11:43:47;2.92;;;2.50;;
65825;SDS011;52586;-43.152;172.732;2022-09-09T11:46:20;3.92;;;2.88;;
65825;SDS011;52586;-43.152;172.732;2022-09-09T11:49:00;4.28;;;2.35;;
65825;SDS011;52586;-43.152;172.732;2022-09-09T11:51:32;2.72;;;2.30;;
65825;SDS011;52586;-43.152;172.732;2022-09-09T11:54:27;4.55;;;2.97;;
65825;SDS011;52586;-43.152;172.732;2022-09-09T11:56:58;3.47;;;2.80;;
65825;SDS011;52586;-43.152;172.732;2022-09-09T11:59:31;3.70;;;2.63;;
65825;SDS011;52586;-43.152;172.732;2022-09-09T12:02:03;3.85;;;2.50;;
65825;SDS011;52586;-43.152;172.732;2022-09-09T12:04:47;3.38;;;2.40;;
65825;SDS011;52586;-43.152;172.732;2022-09-09T12:07:30;3.35;;;2.80;;
65825;SDS011;52586;-43.152;172.732;2022-09-09T12:10:05;2.78;;;2.50;;
65825;SDS011;52586;-43.152;172.732;2022-09-09T12:12:52;3.10;;;2.15;;
65825;SDS011;52586;-43.152;172.732;2022-09-09T12:15:24;3.28;;;2.80;;
65825;SDS011;52586;-43.152;172.732;2022-09-09T12:17:57;3.15;;;2.72;;
65825;SDS011;52586;-43.152;172.732;2022-09-09T12:20:33;4.35;;;2.67;;
65825;SDS011;52586;-43.152;172.732;2022-09-09T12:23:14;3.20;;;2.65;;
65825;SDS011;52586;-43.152;172.732;2022-09-09T12:25:58;3.65;;;2.58;;
65825;SDS011;52586;-43.152;172.732;2022-09-09T12:28:44;3.70;;;2.60;;
65825;SDS011;52586;-43.152;172.732;2022-09-09T12:31:24;3.72;;;2.75;;
65825;SDS011;52586;-43.152;172.732;2022-09-09T12:34:09;3.38;;;2.53;;
65825;SDS011;52586;-43.152;172.732;2022-09-09T12:36:47;3.38;;;2.80;;
65825;SDS011;52586;-43.152;172.732;2022-09-09T12:39:27;3.28;;;2.47;;
65825;SDS011;52586;-43.152;172.732;2022-09-09T12:42:01;2.88;;;2.38;;
65825;SDS011;52586;-43.152;172.732;2022-09-09T12:44:32;3.03;;;2.55;;
65825;SDS011;52586;-43.152;172.732;2022-09-09T12:47:02;3.22;;;2.60;;
65825;SDS011;52586;-43.152;172.732;2022-09-09T12:49:34;2.50;;;2.30;;
65825;SDS011;52586;-43.152;172.732;2022-09-09T12:52:12;3.05;;;2.75;;
65825;SDS011;52586;-43.152;172.732;2022-09-09T12:54:46;3.13;;;2.70;;
65825;SDS011;52586;-43.152;172.732;2022-09-09T12:57:19;3.05;;;2.35;;
65825;SDS011;52586;-43.152;172.732;2022-09-09T13:00:03;2.97;;;2.22;;
65825;SDS011;52586;-43.152;172.732;2022-09-09T13:02:44;3.53;;;2.60;;
65825;SDS011;52586;-43.152;172.732;2022-09-09T13:05:17;3.53;;;2.38;;
65825;SDS011;52586;-43.152;172.732;2022-09-09T13:07:52;2.50;;;2.30;;
65825;SDS011;52586;-43.152;172.732;2022-09-09T13:10:32;3.53;;;2.72;;
65825;SDS011;52586;-43.152;172.732;2022-09-09T13:13:10;3.53;;;2.50;;
65825;SDS011;52586;-43.152;172.732;2022-09-09T13:15:48;3.30;;;2.80;;
65825;SDS011;52586;-43.152;172.732;2022-09-09T13:18:21;3.78;;;2.95;;
65825;SDS011;52586;-43.152;172.732;2022-09-09T13:20:53;4.10;;;2.45;;
65825;SDS011;52586;-43.152;172.732;2022-09-09T13:23:28;3.17;;;2.20;;
65825;SDS011;52586;-43.152;172.732;2022-09-09T13:26:01;3.97;;;2.63;;
65825;SDS011;52586;-43.152;172.732;2022-09-09T13:28:33;3.03;;;2.70;;
65825;SDS011;52586;-43.152;172.732;2022-09-09T13:31:05;3.30;;;2.70;;
65825;SDS011;52586;-43.152;172.732;2022-09-09T13:33:48;2.75;;;2.35;;
65825;SDS011;52586;-43.152;172.732;2022-09-09T13:36:27;4.32;;;2.95;;
65825;SDS011;52586;-43.152;172.732;2022-09-09T14:41:09;2.65;;;1.95;;
65825;SDS011;52586;-43.152;172.732;2022-09-09T14:43:43;3.28;;;2.13;;
65825;SDS011;52586;-43.152;172.732;2022-09-09T14:46:14;2.63;;;2.10;;
65825;SDS011;52586;-43.152;172.732;2022-09-09T14:48:49;2.33;;;2.13;;
65825;SDS011;52586;-43.152;172.732;2022-09-09T14:51:20;2.88;;;2.10;;
65825;SDS011;52586;-43.152;172.732;2022-09-09T14:53:53;2.08;;;1.88;;
65825;SDS011;52586;-43.152;172.732;2022-09-09T14:56:27;3.00;;;2.15;;
65825;SDS011;52586;-43.152;172.732;2022-09-09T14:59:00;2.22;;;1.90;;
65825;SDS011;52586;-43.152;172.732;2022-09-09T15:01:31;2.22;;;2.03;;
65825;SDS011;52586;-43.152;172.732;2022-09-09T15:04:03;2.25;;;1.90;;
65825;SDS011;52586;-43.152;172.732;2022-09-09T15:06:34;2.25;;;1.95;;
65825;SDS011;52586;-43.152;172.732;2022-09-09T15:09:05;2.58;;;1.67;;
65825;SDS011;52586;-43.152;172.732;2022-09-09T15:11:38;2.13;;;1.65;;
65825;SDS011;52586;-43.152;172.732;2022-09-09T15:14:09;3.22;;;1.90;;
65825;SDS011;52586;-43.152;172.732;2022-09-09T15:16:40;2.40;;;2.08;;
65825;SDS011;52586;-43.152;172.732;2022-09-09T15:19:14;2.22;;;1.88;;
65825;SDS011;52586;-43.152;172.732;2022-09-09T15:21:45;1.85;;;1.73;;
65825;SDS011;52586;-43.152;172.732;2022-09-09T15:24:15;2.85;;;1.83;;
65825;SDS011;52586;-43.152;172.732;2022-09-09T15:26:48;1.73;;;1.63;;
65825;SDS011;52586;-43.152;172.732;2022-09-09T15:29:19;2.15;;;1.85;;
65825;SDS011;52586;-43.152;172.732;2022-09-09T15:31:50;1.90;;;1.60;;
65825;SDS011;52586;-43.152;172.732;2022-09-09T15:34:22;2.10;;;1.90;;
65825;SDS011;52586;-43.152;172.732;2022-09-09T15:36:53;2.88;;;2.20;;
65825;SDS011;52586;-43.152;172.732;2022-09-09T15:39:26;2.00;;;1.40;;
65825;SDS011;52586;-43.152;172.732;2022-09-09T15:41:58;1.95;;;1.70;;
65825;SDS011;52586;-43.152;172.732;2022-09-09T15:44:29;2.45;;;1.95;;
65825;SDS011;52586;-43.152;172.732;2022-09-09T15:47:08;1.77;;;1.67;;
65825;SDS011;52586;-43.152;172.732;2022-09-09T15:49:41;1.92;;;1.70;;
65825;SDS011;52586;-43.152;172.732;2022-09-09T15:52:12;2.05;;;1.85;;
65825;SDS011;52586;-43.152;172.732;2022-09-09T15:54:43;2.40;;;2.00;;
65825;SDS011;52586;-43.152;172.732;2022-09-09T15:57:16;2.33;;;1.90;;
65825;SDS011;52586;-43.152;172.732;2022-09-09T15:59:47;1.60;;;1.50;;
65825;SDS011;52586;-43.152;172.732;2022-09-09T16:02:18;1.85;;;1.50;;
65825;SDS011;52586;-43.152;172.732;2022-09-09T16:04:48;1.90;;;1.80;;
65825;SDS011;52586;-43.152;172.732;2022-09-09T16:07:19;1.88;;;1.60;;
65825;SDS011;52586;-43.152;172.732;2022-09-09T16:09:50;1.55;;;1.40;;
65825;SDS011;52586;-43.152;172.732;2022-09-09T16:12:22;2.00;;;1.73;;
65825;SDS011;52586;-43.152;172.732;2022-09-09T16:14:53;1.95;;;1.70;;
65825;SDS011;52586;-43.152;172.732;2022-09-09T16:17:24;2.10;;;1.75;;
65825;SDS011;52586;-43.152;172.732;2022-09-09T16:19:54;2.03;;;1.52;;
65825;SDS011;52586;-43.152;172.732;2022-09-09T16:22:25;1.63;;;1.52;;
65825;SDS011;52586;-43.152;172.732;2022-09-09T16:24:56;2.40;;;1.90;;
65825;SDS011;52586;-43.152;172.732;2022-09-09T16:27:28;1.73;;;1.63;;
65825;SDS011;52586;-43.152;172.732;2022-09-09T16:30:00;1.60;;;1.50;;
65825;SDS011;52586;-43.152;172.732;2022-09-09T16:32:30;1.98;;;1.58;;
65825;SDS011;52586;-43.152;172.732;2022-09-09T16:35:01;1.98;;;1.77;;
65825;SDS011;52586;-43.152;172.732;2022-09-09T16:37:33;1.73;;;1.38;;
65825;SDS011;52586;-43.152;172.732;2022-09-09T16:40:04;1.95;;;1.60;;
65825;SDS011;52586;-43.152;172.732;2022-09-09T16:42:38;2.25;;;1.80;;
65825;SDS011;52586;-43.152;172.732;2022-09-09T16:45:08;1.83;;;1.70;;
65825;SDS011;52586;-43.152;172.732;2022-09-09T16:47:40;2.05;;;1.75;;
65825;SDS011;52586;-43.152;172.732;2022-09-09T16:50:10;1.63;;;1.52;;
65825;SDS011;52586;-43.152;172.732;2022-09-09T16:52:41;2.53;;;1.90;;
65825;SDS011;52586;-43.152;172.732;2022-09-09T16:55:12;1.73;;;1.50;;
65825;SDS011;52586;-43.152;172.732;2022-09-09T16:57:45;1.70;;;1.60;;
65825;SDS011;52586;-43.152;172.732;2022-09-09T17:00:16;2.00;;;1.67;;
65825;SDS011;52586;-43.152;172.732;2022-09-09T17:02:47;1.75;;;1.65;;
65825;SDS011;52586;-43.152;172.732;2022-09-09T17:05:18;1.67;;;1.50;;
65825;SDS011;52586;-43.152;172.732;2022-09-09T17:07:49;2.78;;;1.73;;
65825;SDS011;52586;-43.152;172.732;2022-09-09T17:10:20;2.08;;;1.58;;
65825;SDS011;52586;-43.152;172.732;2022-09-09T17:12:53;1.35;;;1.25;;
65825;SDS011;52586;-43.152;172.732;2022-09-09T17:15:23;2.00;;;1.73;;
65825;SDS011;52586;-43.152;172.732;2022-09-09T17:17:54;1.88;;;1.48;;
65825;SDS011;52586;-43.152;172.732;2022-09-09T17:20:25;1.83;;;1.58;;
65825;SDS011;52586;-43.152;172.732;2022-09-09T17:22:56;1.70;;;1.60;;
65825;SDS011;52586;-43.152;172.732;2022-09-09T17:25:26;1.67;;;1.58;;
65825;SDS011;52586;-43.152;172.732;2022-09-09T17:27:59;1.77;;;1.65;;
65825;SDS011;52586;-43.152;172.732;2022-09-09T17:30:32;1.83;;;1.73;;
65825;SDS011;52586;-43.152;172.732;2022-09-09T17:33:04;2.10;;;1.70;;
65825;SDS011;52586;-43.152;172.732;2022-09-09T17:35:34;2.00;;;1.75;;
65825;SDS011;52586;-43.152;172.732;2022-09-09T17:38:05;2.08;;;1.70;;
65825;SDS011;52586;-43.152;172.732;2022-09-09T17:40:38;2.30;;;1.70;;
65825;SDS011;52586;-43.152;172.732;2022-09-09T17:43:10;2.10;;;1.70;;
65825;SDS011;52586;-43.152;172.732;2022-09-09T17:45:42;1.63;;;1.50;;
65825;SDS011;52586;-43.152;172.732;2022-09-09T17:48:12;1.85;;;1.45;;
65825;SDS011;52586;-43.152;172.732;2022-09-09T17:50:43;1.55;;;1.45;;
65825;SDS011;52586;-43.152;172.732;2022-09-09T17:53:14;2.78;;;1.80;;
65825;SDS011;52586;-43.152;172.732;2022-09-09T17:55:45;1.77;;;1.67;;
65825;SDS011;52586;-43.152;172.732;2022-09-09T17:58:17;2.03;;;1.90;;
65825;SDS011;52586;-43.152;172.732;2022-09-09T18:00:48;2.38;;;1.65;;
65825;SDS011;52586;-43.152;172.732;2022-09-09T18:03:18;2.15;;;1.85;;
65825;SDS011;52586;-43.152;172.732;2022-09-09T18:05:49;2.45;;;1.58;;
65825;SDS011;52586;-43.152;172.732;2022-09-09T18:08:20;2.22;;;1.70;;
65825;SDS011;52586;-43.152;172.732;2022-09-09T18:10:51;2.13;;;1.50;;
65825;SDS011;52586;-43.152;172.732;2022-09-09T18:13:24;1.73;;;1.63;;
65825;SDS011;52586;-43.152;172.732;2022-09-09T18:15:55;2.33;;;1.73;;
65825;SDS011;52586;-43.152;172.732;2022-09-09T18:18:26;2.22;;;1.70;;
65825;SDS011;52586;-43.152;172.732;2022-09-09T18:20:58;1.70;;;1.35;;
65825;SDS011;52586;-43.152;172.732;2022-09-09T18:23:33;2.28;;;1.50;;
65825;SDS011;52586;-43.152;172.732;2022-09-09T18:26:07;1.80;;;1.50;;
65825;SDS011;52586;-43.152;172.732;2022-09-09T18:28:41;1.52;;;1.42;;
65825;SDS011;52586;-43.152;172.732;2022-09-09T18:31:16;1.50;;;1.40;;
65825;SDS011;52586;-43.152;172.732;2022-09-09T18:33:48;1.70;;;1.50;;
65825;SDS011;52586;-43.152;172.732;2022-09-09T18:36:20;1.50;;;1.40;;
65825;SDS011;52586;-43.152;172.732;2022-09-09T18:38:52;1.63;;;1.52;;
65825;SDS011;52586;-43.152;172.732;2022-09-09T19:41:03;1.83;;;1.50;;
65825;SDS011;52586;-43.152;172.732;2022-09-09T19:43:35;1.98;;;1.30;;
65825;SDS011;52586;-43.152;172.732;2022-09-09T19:46:07;1.25;;;1.15;;
65825;SDS011;52586;-43.152;172.732;2022-09-09T19:48:39;1.40;;;1.25;;
65825;SDS011;52586;-43.152;172.732;2022-09-09T19:51:11;1.98;;;1.58;;
65825;SDS011;52586;-43.152;172.732;2022-09-09T19:53:43;1.55;;;1.40;;
65825;SDS011;52586;-43.152;172.732;2022-09-09T19:56:17;1.30;;;1.20;;
65825;SDS011;52586;-43.152;172.732;2022-09-09T19:58:49;1.60;;;1.17;;
65825;SDS011;52586;-43.152;172.732;2022-09-09T20:01:21;1.10;;;1.05;;
65825;SDS011;52586;-43.152;172.732;2022-09-09T20:03:53;1.50;;;1.10;;
65825;SDS011;52586;-43.152;172.732;2022-09-09T20:06:26;1.30;;;1.20;;
65825;SDS011;52586;-43.152;172.732;2022-09-09T20:08:59;3.22;;;1.52;;
65825;SDS011;52586;-43.152;172.732;2022-09-09T20:11:31;1.50;;;1.40;;
65825;SDS011;52586;-43.152;172.732;2022-09-09T20:14:03;1.63;;;1.30;;
65825;SDS011;52586;-43.152;172.732;2022-09-09T20:16:34;1.13;;;1.02;;
65825;SDS011;52586;-43.152;172.732;2022-09-09T20:19:06;1.33;;;1.13;;
65825;SDS011;52586;-43.152;172.732;2022-09-09T20:21:38;1.42;;;1.15;;
65825;SDS011;52586;-43.152;172.732;2022-09-09T20:24:12;1.40;;;1.27;;
65825;SDS011;52586;-43.152;172.732;2022-09-09T20:26:45;1.48;;;1.30;;
65825;SDS011;52586;-43.152;172.732;2022-09-09T20:29:17;1.35;;;1.13;;
65825;SDS011;52586;-43.152;172.732;2022-09-09T20:31:48;1.23;;;1.13;;
65825;SDS011;52586;-43.152;172.732;2022-09-09T20:34:18;1.15;;;0.95;;
65825;SDS011;52586;-43.152;172.732;2022-09-09T20:36:52;1.23;;;1.13;;
65825;SDS011;52586;-43.152;172.732;2022-09-09T20:39:24;1.70;;;1.25;;
65825;SDS011;52586;-43.152;172.732;2022-09-09T20:41:57;1.67;;;1.20;;
65825;SDS011;52586;-43.152;172.732;2022-09-09T20:44:28;0.95;;;0.95;;
65825;SDS011;52586;-43.152;172.732;2022-09-09T20:46:58;1.50;;;1.38;;
65825;SDS011;52586;-43.152;172.732;2022-09-09T20:49:31;1.23;;;1.00;;
65825;SDS011;52586;-43.152;172.732;2022-09-09T20:52:02;2.00;;;1.30;;
65825;SDS011;52586;-43.152;172.732;2022-09-09T20:54:33;2.90;;;1.25;;